createdAt,value
2022-09-14T00:01:24.743Z,97247.91
2022-09-14T00:03:29.138Z,97245.41
2022-09-14T00:05:32.268Z,97236.59
2022-09-14T00:07:35.313Z,97243.09
2022-09-14T00:09:38.436Z,97243.06
2022-09-14T00:11:42.836Z,97231.38
2022-09-14T00:13:47.165Z,97228.31
2022-09-14T00:15:51.994Z,97214.81
2022-09-14T00:17:54.977Z,97213.53
2022-09-14T00:19:58.051Z,97220.25
2022-09-14T00:22:01.497Z,97228.41
2022-09-14T00:24:05.273Z,97222.88
2022-09-14T00:26:10.422Z,97221.03
2022-09-14T00:28:14.774Z,97220.41
2022-09-14T00:30:17.915Z,97206.50
2022-09-14T00:32:20.876Z,97208.50
2022-09-14T00:34:23.868Z,97206.91
2022-09-14T00:36:29.300Z,97203.78
2022-09-14T00:38:32.257Z,97198.47
2022-09-14T00:40:35.244Z,97193.81
2022-09-14T00:42:38.803Z,97188.72
2022-09-14T00:45:08.180Z,97179.50
2022-09-14T00:47:13.797Z,97174.41
2022-09-14T00:49:19.370Z,97161.56
2022-09-14T00:51:23.262Z,97156.06
2022-09-14T00:53:26.462Z,97153.22
2022-09-14T00:55:29.605Z,97146.69
2022-09-14T00:57:37.269Z,97165.06
2022-09-14T00:59:42.231Z,97158.53
2022-09-14T01:01:46.767Z,97159.94
2022-09-14T01:03:49.859Z,97156.47
2022-09-14T01:06:01.413Z,97148.03
2022-09-14T01:08:32.517Z,97148.44
2022-09-14T01:10:46.035Z,97157.63
2022-09-14T01:13:05.997Z,97155.16
2022-09-14T01:15:14.307Z,97152.06
2022-09-14T01:17:23.020Z,97149.41
2022-09-14T01:19:31.741Z,97133.47
2022-09-14T01:21:37.085Z,97129.19
2022-09-14T01:23:44.772Z,97119.75
2022-09-14T01:26:05.702Z,97115.50
2022-09-14T01:28:11.927Z,97112.38
2022-09-14T01:30:19.106Z,97105.47
2022-09-14T01:32:26.282Z,97101.97
2022-09-14T01:34:32.374Z,97105.47
2022-09-14T01:36:36.700Z,97101.34
2022-09-14T01:38:42.008Z,97104.19
2022-09-14T01:40:47.544Z,97115.03
2022-09-14T01:42:52.838Z,97124.06
2022-09-14T01:45:00.097Z,97141.59
2022-09-14T01:47:07.582Z,97161.84
2022-09-14T01:49:15.213Z,97230.84
2022-09-14T01:51:22.404Z,97260.06
2022-09-14T01:53:28.163Z,97261.28
2022-09-14T01:55:35.243Z,97282.75
2022-09-14T01:57:42.029Z,97263.97
2022-09-14T01:59:46.296Z,97240.28
2022-09-14T02:01:52.585Z,97270.22
2022-09-14T02:03:59.028Z,97271.75
2022-09-14T02:06:07.397Z,97276.56
2022-09-14T02:08:10.422Z,97261.03
2022-09-14T02:10:15.162Z,97253.25
2022-09-14T02:12:18.425Z,97258.56
2022-09-14T02:14:21.761Z,97252.41
2022-09-14T02:16:25.919Z,97265.88
2022-09-14T02:18:31.469Z,97268.69
2022-09-14T02:20:40.859Z,97280.16
2022-09-14T02:22:43.850Z,97273.19
2022-09-14T02:24:47.474Z,97263.78
2022-09-14T02:26:52.425Z,97270.28
2022-09-14T02:28:56.062Z,97259.22
2022-09-14T02:31:08.668Z,97264.09
2022-09-14T02:33:17.186Z,97254.41
2022-09-14T02:35:24.796Z,97254.78
2022-09-14T02:37:32.690Z,97247.38
2022-09-14T02:39:41.618Z,97249.94
2022-09-14T02:41:50.025Z,97243.00
2022-09-14T02:44:00.906Z,97236.88
2022-09-14T02:46:08.681Z,97221.16
2022-09-14T02:48:16.859Z,97224.38
2022-09-14T02:50:24.943Z,97230.69
2022-09-14T02:52:33.387Z,97236.34
2022-09-14T02:54:40.616Z,97236.34
2022-09-14T02:56:44.740Z,97237.81
2022-09-14T02:58:47.955Z,97216.63
2022-09-14T03:00:51.779Z,97221.72
2022-09-14T03:02:54.912Z,97215.44
2022-09-14T03:04:58.238Z,97213.78
2022-09-14T03:07:02.686Z,97216.63
2022-09-14T03:09:05.690Z,97216.63
2022-09-14T03:11:08.785Z,97205.03
2022-09-14T03:13:12.230Z,97199.72
2022-09-14T03:15:15.262Z,97205.03
2022-09-14T03:17:18.212Z,97204.66
2022-09-14T03:19:21.782Z,97192.41
2022-09-14T03:21:24.805Z,97189.75
2022-09-14T03:23:29.150Z,97193.41
2022-09-14T03:25:32.442Z,97184.81
2022-09-14T03:27:35.419Z,97187.28
2022-09-14T03:29:38.435Z,97173.22
2022-09-14T03:31:41.436Z,97171.56
2022-09-14T03:33:44.560Z,97170.75
2022-09-14T03:35:47.529Z,97170.94
2022-09-14T03:37:50.430Z,97175.59
2022-09-14T03:39:54.827Z,97177.44
2022-09-14T03:41:57.853Z,97181.72
2022-09-14T03:44:00.866Z,97167.66
2022-09-14T03:46:06.876Z,97166.66
2022-09-14T03:48:11.400Z,97175.59
2022-09-14T03:50:15.727Z,97184.56
2022-09-14T03:52:18.903Z,97181.06
2022-09-14T03:54:21.799Z,97166.22
2022-09-14T03:56:26.305Z,97160.91
2022-09-14T03:58:32.654Z,97153.78
2022-09-14T04:00:36.204Z,97153.78
2022-09-14T04:02:39.542Z,97165.38
2022-09-14T04:04:42.850Z,97159.44
2022-09-14T04:06:45.850Z,97156.00
2022-09-14T04:08:48.935Z,97152.69
2022-09-14T04:10:52.076Z,97151.88
2022-09-14T04:12:56.523Z,97160.81
2022-09-14T04:14:59.544Z,97156.34
2022-09-14T04:17:02.810Z,97160.00
2022-09-14T04:19:06.198Z,97145.94
2022-09-14T04:21:11.692Z,97133.69
2022-09-14T04:23:14.613Z,97132.25
2022-09-14T04:25:17.572Z,97122.84
2022-09-14T04:27:20.533Z,97124.66
2022-09-14T04:29:24.872Z,97127.72
2022-09-14T04:31:27.942Z,97129.34
2022-09-14T04:33:32.623Z,97120.59
2022-09-14T04:35:37.656Z,97124.03
2022-09-14T04:37:40.705Z,97117.94
2022-09-14T04:39:43.807Z,97124.03
2022-09-14T04:41:47.153Z,97126.88
2022-09-14T04:43:51.601Z,97122.44
2022-09-14T04:46:03.731Z,97115.47
2022-09-14T04:48:06.821Z,97125.25
2022-09-14T04:50:11.382Z,97117.31
2022-09-14T04:52:14.314Z,97124.88
2022-09-14T04:54:18.597Z,97117.94
2022-09-14T04:56:23.226Z,97129.16
2022-09-14T04:58:26.200Z,97127.31
2022-09-14T05:00:29.851Z,97127.13
2022-09-14T05:02:34.228Z,97131.44
2022-09-14T05:04:37.340Z,97126.75
2022-09-14T05:06:42.157Z,97129.22
2022-09-14T05:08:45.803Z,97118.44
2022-09-14T05:10:48.840Z,97121.06
2022-09-14T05:12:51.795Z,97118.44
2022-09-14T05:14:55.308Z,97133.69
2022-09-14T05:17:01.228Z,97149.72
2022-09-14T05:19:07.326Z,97165.06
2022-09-14T05:21:11.880Z,97172.31
2022-09-14T05:23:14.807Z,97176.72
2022-09-14T05:25:17.837Z,97164.47
2022-09-14T05:27:20.808Z,97165.31
2022-09-14T05:29:23.838Z,97182.81
2022-09-14T05:31:27.642Z,97188.13
2022-09-14T05:33:31.058Z,97177.16
2022-09-14T05:35:35.426Z,97170.69
2022-09-14T05:37:38.369Z,97166.00
2022-09-14T05:39:41.390Z,97170.94
2022-09-14T05:41:44.331Z,97162.81
2022-09-14T05:43:47.472Z,97155.50
2022-09-14T05:45:50.430Z,97160.44
2022-09-14T05:47:53.390Z,97155.75
2022-09-14T05:49:56.304Z,97162.72
2022-09-14T05:52:00.933Z,97166.00
2022-09-14T05:54:09.293Z,97160.13
2022-09-14T05:56:14.001Z,97166.06
2022-09-14T05:58:17.983Z,97156.09
2022-09-14T06:00:21.684Z,97159.38
2022-09-14T06:02:24.818Z,97164.50
2022-09-14T06:04:28.033Z,97164.50
2022-09-14T06:06:32.619Z,97164.50
2022-09-14T06:08:37.530Z,97158.16
2022-09-14T06:10:40.699Z,97156.34
2022-09-14T06:12:43.686Z,97154.34
2022-09-14T06:14:46.609Z,97148.03
2022-09-14T06:16:49.700Z,97149.47
2022-09-14T06:18:52.779Z,97135.84
2022-09-14T06:20:55.736Z,97138.13
2022-09-14T06:22:58.771Z,97143.88
2022-09-14T06:25:03.138Z,97152.88
2022-09-14T06:27:08.884Z,97155.81
2022-09-14T06:29:11.974Z,97159.09
2022-09-14T06:31:17.730Z,97156.25
2022-09-14T06:33:21.174Z,97149.56
2022-09-14T06:35:24.165Z,97148.56
2022-09-14T06:37:27.187Z,97150.66
2022-09-14T06:39:30.240Z,97155.56
2022-09-14T06:41:34.632Z,97156.00
2022-09-14T06:43:39.787Z,97160.13
2022-09-14T06:45:43.178Z,97156.09
2022-09-14T06:47:46.271Z,97158.34
2022-09-14T06:49:50.306Z,97156.94
2022-09-14T06:51:55.985Z,97159.50
2022-09-14T06:54:00.608Z,97164.66
2022-09-14T06:56:05.026Z,97171.00
2022-09-14T06:58:09.792Z,97165.13
2022-09-14T07:00:13.930Z,97155.75
2022-09-14T07:02:17.134Z,97154.19
2022-09-14T07:04:20.234Z,97149.31
2022-09-14T07:06:24.762Z,97150.13
2022-09-14T07:08:29.460Z,97158.53
2022-09-14T07:10:32.443Z,97154.03
2022-09-14T07:12:35.497Z,97149.34
2022-09-14T07:14:39.905Z,97152.00
2022-09-14T07:16:42.957Z,97158.53
2022-09-14T07:18:46.016Z,97157.69
2022-09-14T07:20:49.428Z,97152.84
2022-09-14T07:22:52.424Z,97162.03
2022-09-14T07:24:55.442Z,97167.22
2022-09-14T07:26:58.480Z,97172.63
2022-09-14T07:29:03.539Z,97176.78
2022-09-14T07:31:16.834Z,97181.34
2022-09-14T07:33:19.933Z,97184.69
2022-09-14T07:35:23.188Z,97189.25
2022-09-14T07:37:26.197Z,97188.53
2022-09-14T07:39:29.224Z,97186.69
2022-09-14T07:41:34.118Z,97186.69
2022-09-14T07:43:37.234Z,97183.22
2022-09-14T07:45:40.270Z,97183.41
2022-09-14T07:47:44.697Z,97194.50
2022-09-14T07:49:47.830Z,97199.22
2022-09-14T07:51:50.923Z,97197.59
2022-09-14T07:53:54.201Z,97198.63
2022-09-14T07:56:01.567Z,97207.00
2022-09-14T07:58:04.533Z,97201.69
2022-09-14T08:00:09.852Z,97210.25
2022-09-14T08:02:15.153Z,97207.00
2022-09-14T08:04:19.827Z,97210.25
2022-09-14T08:06:24.947Z,97216.19
2022-09-14T08:08:29.749Z,97200.88
2022-09-14T08:10:35.953Z,97193.91
2022-09-14T08:12:38.976Z,97192.66
2022-09-14T08:14:41.955Z,97193.25
2022-09-14T08:16:45.074Z,97196.31
2022-09-14T08:18:48.863Z,97199.41
2022-09-14T08:20:53.309Z,97210.69
2022-09-14T08:22:56.228Z,97222.78
2022-09-14T08:24:59.610Z,97225.06
2022-09-14T08:27:02.563Z,97221.41
2022-09-14T08:29:06.666Z,97224.69
2022-09-14T08:31:11.505Z,97237.56
2022-09-14T08:33:14.561Z,97245.16
2022-09-14T08:35:17.545Z,97256.66
2022-09-14T08:37:22.241Z,97257.06
2022-09-14T08:39:25.182Z,97259.50
2022-09-14T08:41:30.443Z,97257.09
2022-09-14T08:43:33.933Z,97260.34
2022-09-14T08:45:36.973Z,97251.13
2022-09-14T08:47:41.907Z,97246.19
2022-09-14T08:49:48.487Z,97236.19
2022-09-14T08:51:51.971Z,97237.41
2022-09-14T08:53:57.589Z,97257.09
2022-09-14T08:56:02.361Z,97264.22
2022-09-14T08:58:09.341Z,97274.88
2022-09-14T09:00:15.445Z,97286.34
2022-09-14T09:02:35.330Z,97284.50
2022-09-14T09:04:43.316Z,97297.81
2022-09-14T09:06:53.597Z,97292.50
2022-09-14T09:09:05.043Z,97284.91
2022-09-14T09:11:11.934Z,97282.09
2022-09-14T09:13:18.871Z,97284.94
2022-09-14T09:15:23.812Z,97271.47
2022-09-14T09:17:31.214Z,97271.28
2022-09-14T09:19:36.136Z,97270.00
2022-09-14T09:21:42.337Z,97268.94
2022-09-14T09:23:45.824Z,97267.84
2022-09-14T09:25:57.680Z,97270.13
2022-09-14T09:28:03.811Z,97264.63
2022-09-14T09:30:08.303Z,97270.34
2022-09-14T09:32:14.960Z,97275.59
2022-09-14T09:34:38.283Z,97273.66
2022-09-14T09:36:50.666Z,97276.19
2022-09-14T09:38:53.611Z,97267.25
2022-09-14T09:41:00.697Z,97263.88
2022-09-14T09:43:09.057Z,97267.16
2022-09-14T09:45:12.017Z,97259.25
2022-09-14T09:47:15.256Z,97257.84
2022-09-14T09:49:21.903Z,97248.00
2022-09-14T09:51:30.487Z,97248.81
2022-09-14T09:53:35.560Z,97232.50
2022-09-14T09:55:40.379Z,97235.66
2022-09-14T09:57:44.888Z,97220.81
2022-09-14T09:59:48.858Z,97223.22
2022-09-14T10:01:54.155Z,97223.94
2022-09-14T10:04:07.228Z,97234.19
2022-09-14T10:06:12.532Z,97225.16
2022-09-14T10:08:16.660Z,97223.88
2022-09-14T10:10:22.022Z,97218.28
2022-09-14T10:12:25.690Z,97220.56
2022-09-14T10:14:32.430Z,97213.50
2022-09-14T10:16:38.826Z,97201.94
2022-09-14T10:18:48.977Z,97201.50
2022-09-14T10:21:09.854Z,97201.28
2022-09-14T10:23:26.381Z,97187.69
2022-09-14T10:25:29.352Z,97174.56
2022-09-14T10:27:39.625Z,97170.47
2022-09-14T10:29:44.093Z,97178.91
2022-09-14T10:31:47.857Z,97170.31
2022-09-14T10:33:53.517Z,97177.75
2022-09-14T10:36:02.132Z,97170.16
2022-09-14T10:38:16.483Z,97167.53
2022-09-14T10:40:23.042Z,97166.13
2022-09-14T10:42:32.801Z,97161.78
2022-09-14T10:44:47.057Z,97154.41
2022-09-14T10:47:04.684Z,97141.66
2022-09-14T10:49:18.751Z,97138.81
2022-09-14T10:51:31.964Z,97138.38
2022-09-14T10:53:45.214Z,97134.63
2022-09-14T10:55:54.322Z,97128.94
2022-09-14T10:58:03.050Z,97125.44
2022-09-14T11:00:12.800Z,97125.44
2022-09-14T11:02:41.488Z,97127.72
2022-09-14T11:04:54.859Z,97113.69
2022-09-14T11:07:03.992Z,97111.00
2022-09-14T11:09:17.393Z,97122.88
2022-09-14T11:11:30.553Z,97115.69
2022-09-14T11:13:44.042Z,97110.09
2022-09-14T11:15:58.007Z,97107.59
2022-09-14T11:18:09.541Z,97117.53
2022-09-14T11:20:22.391Z,97104.09
2022-09-14T11:22:33.847Z,97099.03
2022-09-14T11:24:41.058Z,97096.59
2022-09-14T11:26:47.270Z,97095.09
2022-09-14T11:28:53.710Z,97097.91
2022-09-14T11:31:04.173Z,97094.56
2022-09-14T11:33:14.535Z,97103.31
2022-09-14T11:35:20.434Z,97098.63
2022-09-14T11:37:28.369Z,97084.56
2022-09-14T11:39:34.036Z,97089.13
2022-09-14T11:41:40.799Z,97079.81
2022-09-14T11:43:47.087Z,97079.22
2022-09-14T11:45:53.105Z,97079.38
2022-09-14T11:48:12.475Z,97079.22
2022-09-14T11:50:30.085Z,97079.72
2022-09-14T11:52:34.811Z,97065.91
2022-09-14T11:54:46.122Z,97071.41
2022-09-14T11:56:51.251Z,97069.94
2022-09-14T11:58:55.925Z,97058.91
2022-09-14T12:01:11.330Z,97064.97
2022-09-14T12:03:18.745Z,97075.63
2022-09-14T12:05:36.291Z,97070.50
2022-09-14T12:08:04.745Z,97063.38
2022-09-14T12:10:19.333Z,97068.41
2022-09-14T12:12:46.493Z,97063.31
2022-09-14T12:14:50.332Z,97074.75
2022-09-14T12:17:38.364Z,97076.84
2022-09-14T12:19:42.004Z,97086.06
2022-09-14T12:21:45.547Z,97082.91
2022-09-14T12:23:52.253Z,97090.59
2022-09-14T12:26:02.223Z,97083.72
2022-09-14T12:28:27.222Z,97080.81
2022-09-14T12:31:08.454Z,97083.22
2022-09-14T12:33:42.766Z,97070.63
2022-09-14T12:35:47.848Z,97079.13
2022-09-14T12:37:50.910Z,97073.53
2022-09-14T12:40:37.215Z,97063.78
2022-09-14T12:42:40.295Z,97076.38
2022-09-14T12:44:44.127Z,97066.22
2022-09-14T12:46:48.612Z,97066.00
2022-09-14T12:48:58.893Z,97073.69
2022-09-14T12:51:02.571Z,97065.97
2022-09-14T12:53:30.407Z,97067.13
2022-09-14T12:55:48.650Z,97069.31
2022-09-14T12:57:56.232Z,97068.34
2022-09-14T13:00:07.146Z,97063.56
2022-09-14T13:02:32.833Z,97053.78
2022-09-14T13:04:38.251Z,97057.59
2022-09-14T13:06:44.122Z,97055.53
2022-09-14T13:08:49.079Z,97048.34
2022-09-14T13:10:52.740Z,97047.50
2022-09-14T13:12:56.803Z,97049.13
2022-09-14T13:15:02.086Z,97058.19
2022-09-14T13:17:06.303Z,97053.91
2022-09-14T13:19:24.466Z,97041.13
2022-09-14T13:21:27.593Z,97046.53
2022-09-14T13:23:33.931Z,97061.59
2022-09-14T13:25:38.579Z,97068.00
2022-09-14T13:27:50.856Z,97074.41
2022-09-14T13:30:03.227Z,97081.03
2022-09-14T13:32:07.262Z,97094.16
2022-09-14T13:34:18.723Z,97098.69
2022-09-14T13:36:25.314Z,97109.19
2022-09-14T13:38:31.330Z,97135.09
2022-09-14T13:40:34.888Z,97137.38
2022-09-14T13:42:38.006Z,97139.06
2022-09-14T13:44:45.263Z,97163.06
2022-09-14T13:46:48.340Z,97154.22
2022-09-14T13:48:52.171Z,97161.41
2022-09-14T13:50:55.394Z,97163.47
2022-09-14T13:53:03.115Z,97149.97
2022-09-14T13:55:21.738Z,97151.41
2022-09-14T13:57:25.960Z,97154.69
2022-09-14T13:59:28.913Z,97153.84
2022-09-14T14:01:39.913Z,97164.09
2022-09-14T14:03:48.835Z,97164.53
2022-09-14T14:05:52.155Z,97157.97
2022-09-14T14:07:56.555Z,97160.44
2022-09-14T14:10:01.976Z,97162.72
2022-09-14T14:12:05.100Z,97147.75
2022-09-14T14:14:13.502Z,97145.31
2022-09-14T14:16:19.672Z,97138.13
2022-09-14T14:18:40.305Z,97131.38
2022-09-14T14:20:43.799Z,97113.56
2022-09-14T14:22:56.167Z,97116.25
2022-09-14T14:25:16.558Z,97119.50
2022-09-14T14:27:28.268Z,97108.06
2022-09-14T14:29:31.439Z,97100.06
2022-09-14T14:31:34.468Z,97088.38
2022-09-14T14:33:45.571Z,97084.69
2022-09-14T14:35:51.760Z,97081.22
2022-09-14T14:37:55.603Z,97089.00
2022-09-14T14:39:58.729Z,97090.41
2022-09-14T14:42:03.636Z,97093.91
2022-09-14T14:44:08.208Z,97098.59
2022-09-14T14:46:11.342Z,97092.88
2022-09-14T14:48:14.444Z,97087.16
2022-09-14T14:50:18.834Z,97099.03
2022-09-14T14:52:21.865Z,97107.63
2022-09-14T14:54:24.943Z,97113.78
2022-09-14T14:56:28.210Z,97114.38
2022-09-14T14:58:36.347Z,97117.44
2022-09-14T15:00:39.635Z,97118.28
2022-09-14T15:02:42.822Z,97117.66
2022-09-14T15:04:45.876Z,97126.25
2022-09-14T15:06:49.097Z,97134.47
2022-09-14T15:08:54.036Z,97140.81
2022-09-14T15:10:57.443Z,97139.38
2022-09-14T15:13:00.635Z,97148.75
2022-09-14T15:15:05.789Z,97157.53
2022-09-14T15:17:08.735Z,97147.72
2022-09-14T15:19:11.905Z,97136.47
2022-09-14T15:21:15.084Z,97136.03
2022-09-14T15:23:18.108Z,97124.38
2022-09-14T15:25:22.337Z,97117.41
2022-09-14T15:27:25.968Z,97108.03
2022-09-14T15:29:29.217Z,97106.78
2022-09-14T15:31:33.957Z,97111.50
2022-09-14T15:33:37.026Z,97112.28
2022-09-14T15:35:40.376Z,97113.75
2022-09-14T15:37:43.489Z,97112.31
2022-09-14T15:39:50.061Z,97112.53
2022-09-14T15:41:53.499Z,97099.03
2022-09-14T15:43:56.483Z,97089.81
2022-09-14T15:46:05.692Z,97071.59
2022-09-14T15:48:13.313Z,97065.06
2022-09-14T15:50:16.639Z,97057.72
2022-09-14T15:52:19.848Z,97051.97
2022-09-14T15:54:24.423Z,97047.06
2022-09-14T15:56:27.767Z,97031.09
2022-09-14T15:58:31.361Z,97016.97
2022-09-14T16:00:34.552Z,97006.31
2022-09-14T16:02:37.688Z,97005.47
2022-09-14T16:04:42.151Z,97016.13
2022-09-14T16:06:46.132Z,97030.47
2022-09-14T16:08:49.104Z,97023.13
2022-09-14T16:10:58.355Z,97027.41
2022-09-14T16:13:01.378Z,97038.88
2022-09-14T16:15:04.599Z,97049.72
2022-09-14T16:17:08.523Z,97047.91
2022-09-14T16:19:13.787Z,97031.28
2022-09-14T16:21:21.279Z,97024.13
2022-09-14T16:23:24.252Z,97026.38
2022-09-14T16:25:27.288Z,97023.34
2022-09-14T16:27:30.955Z,97025.34
2022-09-14T16:29:34.008Z,97024.78
2022-09-14T16:31:38.490Z,97032.94
2022-09-14T16:33:43.282Z,97050.72
2022-09-14T16:35:46.266Z,97061.97
2022-09-14T16:37:50.646Z,97062.59
2022-09-14T16:39:53.987Z,97065.84
2022-09-14T16:41:57.389Z,97070.78
2022-09-14T16:44:05.038Z,97071.78
2022-09-14T16:46:09.683Z,97080.16
2022-09-14T16:48:12.948Z,97083.81
2022-09-14T16:50:16.041Z,97075.66
2022-09-14T16:52:19.157Z,97077.06
2022-09-14T16:54:25.444Z,97059.50
2022-09-14T16:56:30.913Z,97059.25
2022-09-14T16:58:34.725Z,97066.19
2022-09-14T17:00:41.201Z,97063.53
2022-09-14T17:02:46.728Z,97067.22
2022-09-14T17:04:49.831Z,97063.53
2022-09-14T17:06:55.108Z,97065.19
2022-09-14T17:09:00.494Z,97063.53
2022-09-14T17:11:06.088Z,97066.38
2022-09-14T17:13:09.108Z,97061.28
2022-09-14T17:15:12.374Z,97060.47
2022-09-14T17:17:15.879Z,97053.31
2022-09-14T17:19:19.104Z,97060.66
2022-09-14T17:21:24.665Z,97059.03
2022-09-14T17:23:28.051Z,97056.75
2022-09-14T17:25:31.141Z,97064.31
2022-09-14T17:27:35.572Z,97072.09
2022-09-14T17:29:40.727Z,97054.69
2022-09-14T17:31:44.939Z,97060.59
2022-09-14T17:33:48.298Z,97061.81
2022-09-14T17:35:52.668Z,97068.97
2022-09-14T17:37:56.093Z,97062.84
2022-09-14T17:39:59.141Z,97073.69
2022-09-14T17:42:02.202Z,97069.38
2022-09-14T17:44:07.750Z,97080.19
2022-09-14T17:46:13.369Z,97076.94
2022-09-14T17:48:16.564Z,97069.34
2022-09-14T17:50:21.034Z,97076.06
2022-09-14T17:52:23.984Z,97073.00
2022-09-14T17:54:27.432Z,97069.94
2022-09-14T17:56:31.266Z,97072.97
2022-09-14T17:58:34.363Z,97068.28
2022-09-14T18:00:38.746Z,97071.31
2022-09-14T18:02:42.049Z,97069.66
2022-09-14T18:04:48.621Z,97068.03
2022-09-14T18:06:51.835Z,97075.16
2022-09-14T18:08:55.748Z,97080.69
2022-09-14T18:11:05.162Z,97077.41
2022-09-14T18:13:08.272Z,97074.13
2022-09-14T18:15:15.047Z,97068.38
2022-09-14T18:17:19.993Z,97061.38
2022-09-14T18:19:23.236Z,97063.63
2022-09-14T18:21:26.363Z,97069.50
2022-09-14T18:23:29.655Z,97070.09
2022-09-14T18:25:33.583Z,97080.09
2022-09-14T18:27:36.671Z,97075.16
2022-09-14T18:29:40.069Z,97077.56
2022-09-14T18:31:43.328Z,97076.91
2022-09-14T18:33:52.487Z,97075.44
2022-09-14T18:35:55.806Z,97080.31
2022-09-14T18:37:58.885Z,97071.69
2022-09-14T18:40:02.293Z,97071.69
2022-09-14T18:42:05.801Z,97075.81
2022-09-14T18:44:08.845Z,97069.69
2022-09-14T18:46:12.166Z,97075.59
2022-09-14T18:48:15.400Z,97078.03
2022-09-14T18:50:20.482Z,97079.84
2022-09-14T18:52:23.569Z,97086.81
2022-09-14T18:54:27.694Z,97083.97
2022-09-14T18:56:33.126Z,97081.69
2022-09-14T18:58:37.809Z,97083.72
2022-09-14T19:00:45.872Z,97096.34
2022-09-14T19:02:52.705Z,97096.34
2022-09-14T19:04:56.470Z,97096.53
2022-09-14T19:07:01.156Z,97096.72
2022-09-14T19:09:04.404Z,97095.72
2022-09-14T19:11:08.288Z,97099.19
2022-09-14T19:13:11.585Z,97099.00
2022-09-14T19:15:14.960Z,97100.03
2022-09-14T19:17:18.010Z,97102.47
2022-09-14T19:19:21.262Z,97102.28
2022-09-14T19:21:26.153Z,97099.44
2022-09-14T19:23:30.960Z,97092.31
2022-09-14T19:25:37.756Z,97089.66
2022-09-14T19:27:40.899Z,97095.16
2022-09-14T19:29:44.005Z,97091.69
2022-09-14T19:31:50.968Z,97085.53
2022-09-14T19:33:55.088Z,97082.28
2022-09-14T19:36:03.436Z,97071.47
2022-09-14T19:38:06.500Z,97074.13
2022-09-14T19:40:11.632Z,97065.56
2022-09-14T19:42:14.815Z,97079.81
2022-09-14T19:44:18.408Z,97071.84
2022-09-14T19:46:23.285Z,97076.53
2022-09-14T19:48:26.499Z,97085.88
2022-09-14T19:50:29.747Z,97098.53
2022-09-14T19:52:32.822Z,97100.53
2022-09-14T19:54:36.036Z,97108.25
2022-09-14T19:56:40.441Z,97105.97
2022-09-14T19:58:46.841Z,97101.22
2022-09-14T20:00:53.988Z,97099.13
2022-09-14T20:02:57.057Z,97101.34
2022-09-14T20:05:00.213Z,97100.66
2022-09-14T20:07:03.379Z,97104.50
2022-09-14T20:09:08.250Z,97105.69
2022-09-14T20:11:17.654Z,97101.78
2022-09-14T20:13:24.312Z,97108.47
2022-09-14T20:15:29.748Z,97107.22
2022-09-14T20:17:32.819Z,97109.63
2022-09-14T20:19:36.460Z,97119.59
2022-09-14T20:21:41.281Z,97120.97
2022-09-14T20:24:04.488Z,97135.56
2022-09-14T20:26:09.938Z,97138.59
2022-09-14T20:28:13.005Z,97143.06
2022-09-14T20:30:17.637Z,97139.63
2022-09-14T20:32:20.678Z,97139.63
2022-09-14T20:34:23.937Z,97136.13
2022-09-14T20:36:28.566Z,97133.84
2022-09-14T20:38:31.631Z,97125.28
2022-09-14T20:40:34.780Z,97133.41
2022-09-14T20:42:37.873Z,97118.72
2022-09-14T20:44:40.945Z,97120.56
2022-09-14T20:46:47.006Z,97129.31
2022-09-14T20:48:50.893Z,97131.56
2022-09-14T20:50:54.139Z,97138.72
2022-09-14T20:52:57.303Z,97135.25
2022-09-14T20:55:00.458Z,97140.56
2022-09-14T20:57:04.598Z,97144.81
2022-09-14T20:59:09.590Z,97144.63
2022-09-14T21:01:14.072Z,97152.56
2022-09-14T21:03:18.541Z,97147.66
2022-09-14T21:05:21.582Z,97153.41
2022-09-14T21:07:25.661Z,97149.75
2022-09-14T21:09:29.175Z,97150.31
2022-09-14T21:11:32.525Z,97146.59
2022-09-14T21:13:36.149Z,97142.91
2022-09-14T21:15:39.309Z,97149.06
2022-09-14T21:17:42.508Z,97146.59
2022-09-14T21:19:46.980Z,97142.09
2022-09-14T21:21:50.693Z,97139.63
2022-09-14T21:23:55.773Z,97127.59
2022-09-14T21:25:58.768Z,97128.78
2022-09-14T21:28:02.004Z,97121.03
2022-09-14T21:30:05.896Z,97118.56
2022-09-14T21:32:09.292Z,97120.19
2022-09-14T21:34:13.319Z,97122.84
2022-09-14T21:36:19.294Z,97127.94
2022-09-14T21:38:22.315Z,97128.69
2022-09-14T21:40:25.448Z,97121.84
2022-09-14T21:42:30.229Z,97121.56
2022-09-14T21:44:34.998Z,97123.41
2022-09-14T21:46:38.501Z,97114.28
2022-09-14T21:48:41.735Z,97108.34
2022-09-14T21:50:47.363Z,97100.59
2022-09-14T21:52:51.939Z,97098.97
2022-09-14T21:54:54.949Z,97098.78
2022-09-14T21:56:57.943Z,97093.19
2022-09-14T21:59:02.764Z,97104.16
2022-09-14T22:01:06.169Z,97102.72
2022-09-14T22:03:09.305Z,97107.81
2022-09-14T22:05:12.691Z,97106.97
2022-09-14T22:07:15.765Z,97106.97
2022-09-14T22:09:28.256Z,97104.69
2022-09-14T22:11:32.659Z,97111.38
2022-09-14T22:13:35.775Z,97115.03
2022-09-14T22:15:38.824Z,97115.84
2022-09-14T22:17:42.065Z,97121.13
2022-09-14T22:19:45.134Z,97124.81
2022-09-14T22:21:48.954Z,97136.38
2022-09-14T22:23:53.121Z,97125.78
2022-09-14T22:25:58.249Z,97117.03
2022-09-14T22:28:01.324Z,97113.91
2022-09-14T22:30:04.597Z,97116.75
2022-09-14T22:32:12.072Z,97121.59
2022-09-14T22:34:15.307Z,97126.88
2022-09-14T22:36:18.448Z,97134.81
2022-09-14T22:38:22.223Z,97121.59
2022-09-14T22:40:25.284Z,97133.84
2022-09-14T22:42:31.437Z,97134.81
2022-09-14T22:44:34.421Z,97137.47
2022-09-14T22:46:37.452Z,97136.47
2022-09-14T22:48:40.557Z,97138.31
2022-09-14T22:50:43.818Z,97133.84
2022-09-14T22:52:46.812Z,97133.84
2022-09-14T22:54:49.808Z,97129.97
2022-09-14T22:56:52.824Z,97135.47
2022-09-14T22:58:57.482Z,97138.13
2022-09-14T23:01:06.379Z,97128.19
2022-09-14T23:03:10.239Z,97140.38
2022-09-14T23:05:13.252Z,97138.75
2022-09-14T23:07:16.239Z,97145.03
2022-09-14T23:09:22.354Z,97145.03
2022-09-14T23:11:25.870Z,97140.97
2022-09-14T23:13:28.797Z,97142.75
2022-09-14T23:15:33.190Z,97141.94
2022-09-14T23:17:36.186Z,97139.94
2022-09-14T23:19:39.373Z,97135.47
2022-09-14T23:21:42.418Z,97136.13
2022-09-14T23:23:45.538Z,97140.13
2022-09-14T23:25:48.973Z,97139.31
2022-09-14T23:27:52.032Z,97140.13
2022-09-14T23:29:54.982Z,97138.13
2022-09-14T23:31:59.344Z,97138.13
2022-09-14T23:34:04.061Z,97142.13
2022-09-14T23:36:07.413Z,97144.78
2022-09-14T23:38:10.434Z,97149.25
2022-09-14T23:40:13.965Z,97156.66
2022-09-14T23:42:16.993Z,97165.22
2022-09-14T23:44:20.069Z,97150.69
2022-09-14T23:46:23.436Z,97156.84
2022-09-14T23:48:28.164Z,97157.47
2022-09-14T23:50:31.629Z,97158.91
2022-09-14T23:52:34.724Z,97159.56
2022-09-14T23:54:37.650Z,97161.00
2022-09-14T23:56:41.041Z,97174.03
2022-09-14T23:58:44.428Z,97172.06
